Station: Ballera

  Atmospheric Gas Attenuation - ITU Rec 676-11   --------------- db/100km ---------------
Date Time Temp RH % AH g/m3 Dew Point Wind Direction Speed kph Gust kph Barometer mB Rainfall Since 9am 24GHz 47GHz 76GHz 122GHz 134GHz 241GHz
27 01:20 26.1 44 10.77 12.9 9 9 1005.9 0 23.6 25.5 41.5 109.3 108.8 376.5
27 01:10 26.4 43 10.7 12.8 11 11 1006 0 23.4 25.3 41.1 108.3 107.6 372.2
27 01:00 26.6 43 10.82 13.3 11 13 1005.9 0 23.6 25.4 41.4 109.1 108.7 376.2
27 00:50 26.7 43 10.88 13.4 11 11 1006.1 0 23.7 25.5 41.6 109.6 109.3 378.3
27 00:40 27 44 11.32 13.7 11 13 1006.1 0 24.6 26.0 43.1 113.5 114.1 395.3
27 00:30 26.9 43 11.01 13.3 11 13 1006.1 0 24.0 25.6 42.0 110.6 110.6 382.8
27 00:20 27.1 42 10.87 13.4 11 13 1006.2 0 23.7 25.3 41.4 109.0 108.6 376.0
27 00:10 27.4 42 11.05 13.4 13 13 1006.2 0 24.1 25.5 41.9 110.3 110.4 382.1
27 00:00 27.3 42 10.99 13.3 11 13 1006.1 0 23.9 25.5 41.7 109.8 109.8 380.0
26 23:50 27.6 41 10.91 13.5 13 13 1006.3 0 23.8 25.3 41.3 108.7 108.4 375.4
26 23:40 27.8 42 11.3 13.7 13 13 1006.3 0 24.6 25.8 42.6 112.2 112.8 390.6
26 23:30 27.9 40 10.82 13.4 13 15 1006.3 0 23.6 25.1 40.8 107.4 107.0 370.3
26 23:20 28.1 41 11.21 13.6 13 13 1006.4 0 24.4 25.6 42.1 110.9 111.3 385.5
26 22:36 29 37 10.63 13.2 19 22 1006.5 0 23.1 24.5 39.6 104.2 103.4 357.7
26 22:30 29.2 38 11.04 13.4 24 33 1006.4 0 23.9 25.0 40.9 107.8 107.8 373.3
26 22:20 29.4 37 10.86 13.2 30 33 1006.6 0 23.6 24.7 40.2 105.9 105.5 365.2
26 21:47 31.3 31 10.08 12.6 22 24 1006.4 0 21.8 23.1 36.7 96.4 94.4 326.5
26 21:40 31.1 29 9.33 11 13 15 1006.4 0 20.3 22.2 34.3 90.1 86.5 298.9
26 21:30 31.5 23 7.56 7.9 15 20 1006.3 0 16.6 19.8 28.6 74.8 67.8 233.3
26 21:20 31.8 21 7.02 6.8 20 22 1006.3 0 15.5 19.1 26.9 70.2 62.2 213.7
26 21:10 31.8 17 5.68 3.8 15 15 1006.2 0 12.8 17.5 23.0 59.8 49.4 168.7
26 20:19 32.5 17 5.9 4.3 15 17 1005.3 0 13.2 17.6 23.4 60.9 51.0 174.3
26 20:10 32.7 17 5.96 4.5 17 19 1005.2 0 13.3 17.6 23.5 61.2 51.4 175.9
26 20:00 32.9 17 6.02 4.6 15 20 1005 0 13.4 17.7 23.6 61.5 51.9 177.4
26 19:50 33.1 17 6.09 4.8 15 17 1005 0 13.6 17.7 23.7 61.9 52.4 179.3
26 19:40 33.1 17 6.09 4.8 13 15 1004.8 0 13.6 17.7 23.7 61.9 52.4 179.2
26 19:30 33.3 18 6.51 5.8 17 20 1004.5 0 14.4 18.2 24.9 64.9 56.2 192.6
26 19:20 33.5 18 6.58 5.9 17 20 1004.7 0 14.6 18.2 25.0 65.3 56.7 194.5
26 19:10 33.8 17 6.31 5.4 11 13 1004.5 0 14.0 17.8 24.2 63.0 54.0 184.9
26 19:00 34 17 6.38 5.5 13 17 1004.2 0 14.1 17.9 24.3 63.4 54.5 186.7
26 18:50 34.4 16 6.13 5 9 11 1004.2 0 13.6 17.5 23.5 61.2 51.9 177.8
26 18:40 34.5 16 6.17 5 7 9 1003.9 0 13.7 17.5 23.6 61.4 52.2 178.8
26 18:30 35 15 5.93 4.5 7 13 1003.6 0 13.2 17.2 22.8 59.3 49.7 170.1
26 18:20 34.7 15 5.84 4.3 2 6 1003.7 0 13.0 17.1 22.6 58.9 49.1 167.8
26 18:10 35.1 15 5.96 4.6 11 13 1003.6 0 13.2 17.2 22.8 59.5 49.9 170.8
26 18:00 35.2 15 6 4.7 13 22 1003.5 0 13.3 17.2 22.9 59.7 50.2 171.9
26 17:50 35.4 15 6.06 4.8 13 17 1003.6 0 13.4 17.2 23.0 60.0 50.7 173.4
26 17:40 35.7 15 6.15 5.1 0 0 1003.6 0 13.6 17.3 23.2 60.4 51.3 175.6
26 17:30 35.3 15 6.03 4.8 9 13 1003.4 0 13.4 17.2 22.9 59.8 50.4 172.6
26 17:20 35.4 15 6.06 4.8 13 17 1003.5 0 13.4 17.2 23.0 60.0 50.7 173.4
26 17:10 35.6 15 6.12 5 7 9 1003.4 0 13.6 17.3 23.1 60.3 51.1 174.9
26 17:00 35.8 16 6.6 6.1 13 20 1003.2 0 14.5 17.8 24.4 63.6 55.3 189.8
26 16:50 34.8 17 6.65 6.2 15 17 1003.2 0 14.7 18.0 24.8 64.8 56.4 193.6
26 16:40 35 17 6.72 6.3 15 19 1003.4 0 14.8 18.0 24.9 65.2 56.9 195.5
26 16:30 34.9 17 6.69 6.2 17 26 1003.3 0 14.7 18.0 24.9 65.0 56.7 194.7
26 16:20 35.6 16 6.53 5.9 11 13 1003.5 0 14.4 17.7 24.2 63.3 54.8 188.0
26 16:10 34.9 17 6.69 6.2 15 19 1003.5 0 14.7 18.0 24.9 65.0 56.7 194.7
26 16:00 34.9 17 6.69 6.2 11 22 1003.6 0 14.7 18.0 24.9 65.0 56.7 194.8
26 15:50 34.6 18 6.97 6.8 13 17 1003.8 0 15.3 18.4 25.8 67.4 59.6 204.7
26 15:40 34.6 17 6.59 6 6 7 1003.9 0 14.5 18.0 24.7 64.5 56.0 192.2
26 15:30 35.5 17 6.9 6.7 11 17 1003.9 0 15.1 18.2 25.3 66.2 58.3 200.3
26 15:20 34.9 17 6.69 6.2 11 15 1004.1 0 14.7 18.1 24.9 65.1 56.8 194.8
26 15:10 34.7 17 6.62 6.1 9 11 1004.2 0 14.6 18.0 24.8 64.7 56.3 193.0
26 15:00 34.4 17 6.52 5.8 9 17 1004.3 0 14.4 18.0 24.6 64.2 55.5 190.4
26 14:50 35.4 17 6.87 6.6 11 20 1004.6 0 15.1 18.2 25.3 66.1 58.1 199.7
26 14:40 34.2 18 6.83 6.5 7 7 1004.7 0 15.1 18.4 25.5 66.7 58.6 201.2
26 14:30 34.5 17 6.55 5.9 11 20 1004.8 0 14.5 18.0 24.6 64.4 55.8 191.3
26 14:20 35.2 16 6.39 5.6 17 19 1005.1 0 14.1 17.7 24.0 62.7 53.9 184.6
26 14:10 34.2 17 6.45 5.7 13 19 1005.1 0 14.3 17.9 24.5 63.8 55.1 188.7
26 14:00 33.7 17 6.28 5.3 13 20 1005.2 0 13.9 17.8 24.1 62.9 53.8 184.3
26 13:50 34 15 5.63 3.7 17 19 1005.5 0 12.6 17.0 22.2 57.9 47.7 162.7
26 13:40 33.6 16 5.88 4.3 9 9 1005.8 0 13.1 17.4 23.0 60.1 50.2 171.6
26 13:30 33.2 16 5.76 4 9 17 1005.8 0 12.9 17.3 22.8 59.4 49.3 168.5
26 13:20 33.4 15 5.46 3.3 9 11 1006.1 0 12.3 17.0 22.0 57.1 46.5 158.5
26 13:10 33.2 16 5.76 4 15 17 1006.2 0 12.9 17.4 22.8 59.5 49.3 168.5
26 13:00 33 16 5.7 3.9 13 20 1006.2 0 12.8 17.3 22.7 59.2 48.9 167.0
26 12:50 32.4 16 5.52 3.4 13 15 1006.4 0 12.4 17.2 22.4 58.2 47.6 162.3
26 12:40 33.1 15 5.37 3 13 17 1006.5 0 12.1 16.9 21.8 56.7 45.9 156.2
26 12:30 33 15 5.34 2.9 17 26 1006.4 0 12.1 16.9 21.7 56.5 45.6 155.4
26 12:20 32.2 16 5.46 3.2 13 17 1006.7 0 12.3 17.2 22.3 58.0 47.2 160.8
26 12:10 31.7 16 5.32 2.8 15 20 1006.8 0 12.0 17.1 22.0 57.2 46.2 157.2
26 12:00 32.4 15 5.17 2.5 15 26 1006.8 0 11.7 16.8 21.4 55.7 44.4 151.1
26 11:50 31.7 16 5.32 2.8 19 20 1007 0 12.0 17.1 22.0 57.3 46.2 157.2
26 11:40 31.9 16 5.37 3 17 22 1007.1 0 12.1 17.2 22.1 57.5 46.5 158.5
26 11:30 31.4 16 5.23 2.6 19 28 1007.3 0 11.9 17.1 21.9 56.8 45.5 154.9
26 11:20 31.3 15 4.88 1.6 17 20 1007.5 0 11.2 16.7 20.9 54.3 42.4 143.8
26 11:10 31 15 4.8 1.4 17 24 1007.6 0 11.0 16.7 20.8 53.9 41.8 141.7
26 11:00 30.6 15 4.7 1 20 30 1007.6 0 10.8 16.6 20.6 53.4 41.1 139.1
26 10:50 30.2 15 4.6 0.7 19 24 1007.7 0 10.6 16.6 20.4 52.9 40.4 136.6
26 10:40 29.3 14 4.09 -0.9 15 19 1007.9 0 9.6 16.2 19.2 49.7 36.1 121.6
26 10:30 29.5 14 4.13 -0.8 20 32 1008 0 9.7 16.2 19.3 49.9 36.4 122.6
26 10:20 29.3 14 4.09 -0.9 20 24 1008 0 9.6 16.2 19.2 49.7 36.1 121.6
26 10:10 29 14 4.02 -1.2 26 32 1008.1 0 9.5 16.2 19.1 49.4 35.6 119.8
26 10:00 28.1 14 3.83 -1.9 24 30 1008.2 0 9.1 16.1 18.8 48.5 34.3 115.0
26 09:50 29 13 3.73 -2.2 24 28 1008.2 0 8.9 15.8 18.3 47.3 33.0 110.6
26 09:40 28 13 3.54 -3 26 32 1008.2 0 8.5 15.8 18.0 46.5 31.7 105.8
26 09:30 27.6 14 3.72 -2.3 28 35 1008.1 0 8.9 16.1 18.6 48.0 33.5 112.1
26 09:20 27.2 14 3.64 -2.6 30 33 1008.1 0 8.7 16.0 18.5 47.6 32.9 110.0
26 09:10 26.6 14 3.52 -3.1 26 30 1008.2 0 8.5 16.0 18.3 47.1 32.1 106.9
26 09:00 26.1 14 3.43 -3.5 28 35 1008.2 0 8.3 16.0 18.1 46.7 31.4 104.6
26 08:50 26 15 3.65 -2.6 30 32 1008.1 0 8.8 16.2 18.7 48.4 33.5 111.9
26 08:40 25.7 15 3.59 -2.8 30 33 1008 0 8.7 16.2 18.6 48.1 33.0 110.3
26 08:30 24.8 15 3.41 -3.6 30 37 1007.9 0 8.3 16.2 18.3 47.2 31.7 105.5
26 08:20 24.5 15 3.36 -3.8 30 33 1007.8 0 8.2 16.1 18.2 47.0 31.4 104.2
26 08:00 23 17 3.49 -3.3 24 30 1007.8 0 8.5 16.6 18.9 48.9 33.2 110.4
26 07:54 23 17 3.49 -3.3 24 28 1007.8 0 8.5 16.6 18.9 48.9 33.2 110.4
26 07:50 22.9 17 3.47 -3.4 24 26 1007.8 0 8.5 16.5 18.9 48.8 33.0 109.9
26 07:40 22.5 17 3.4 -3.7 22 26 1007.7 0 8.3 16.5 18.8 48.4 32.5 108.0
26 07:30 22.1 17 3.32 -4.1 24 30 1007.6 0 8.2 16.5 18.6 48.0 31.9 105.8
26 07:20 21.7 18 3.43 -3.6 24 30 1007.5 0 8.4 16.7 19.0 49.1 33.1 110.0

Last Refresh: 27-Feb-2021 02:08:07

Most of the information presented on this site is sourced from the Bureau of Meteorology.  Copyright in all material sourced from the Bureau of Meteorology resides with the Commonwealth of Australia.